createdAt,value
2024-02-08T00:01:39.118Z,100244.84
2024-02-08T00:04:05.857Z,100245.59
2024-02-08T00:06:33.252Z,100254.22
2024-02-08T00:09:03.191Z,100246.47
2024-02-08T00:11:29.669Z,100246.59
2024-02-08T00:13:56.218Z,100248.38
2024-02-08T00:16:22.661Z,100241.56
2024-02-08T00:18:49.054Z,100239.06
2024-02-08T00:21:15.873Z,100239.84
2024-02-08T00:23:42.310Z,100241.34
2024-02-08T00:26:08.862Z,100244.63
2024-02-08T00:28:35.237Z,100246.34
2024-02-08T00:31:01.779Z,100232.31
2024-02-08T00:33:28.112Z,100234.03
2024-02-08T00:35:54.627Z,100238.22
2024-02-08T00:38:21.085Z,100220.88
2024-02-08T00:40:48.345Z,100222.50
2024-02-08T00:43:14.646Z,100218.47
2024-02-08T00:45:41.119Z,100215.22
2024-02-08T00:48:07.500Z,100208.44
2024-02-08T00:50:34.022Z,100210.06
2024-02-08T00:53:01.704Z,100211.69
2024-02-08T00:55:31.479Z,100214.97
2024-02-08T00:57:57.858Z,100212.59
2024-02-08T01:00:24.436Z,100200.38
2024-02-08T01:02:50.938Z,100197.63
2024-02-08T01:05:17.599Z,100198.41
2024-02-08T01:07:44.262Z,100194.78
2024-02-08T01:10:10.586Z,100194.44
2024-02-08T01:12:37.104Z,100191.50
2024-02-08T01:15:05.718Z,100191.88
2024-02-08T01:17:33.281Z,100187.09
2024-02-08T01:20:02.860Z,100186.44
2024-02-08T01:22:29.774Z,100189.06
2024-02-08T01:24:56.564Z,100184.31
2024-02-08T01:27:23.085Z,100181.25
2024-02-08T01:29:50.635Z,100173.00
2024-02-08T01:32:17.727Z,100178.00
2024-02-08T01:34:47.386Z,100179.75
2024-02-08T01:37:14.393Z,100178.00
2024-02-08T01:39:41.367Z,100173.72
2024-02-08T01:42:14.672Z,100177.88
2024-02-08T01:44:46.504Z,100185.16
2024-02-08T01:47:13.625Z,100180.63
2024-02-08T01:49:40.458Z,100184.78
2024-02-08T01:52:07.215Z,100181.50
2024-02-08T01:54:33.741Z,100176.25
2024-02-08T01:57:00.634Z,100177.00
2024-02-08T01:59:28.837Z,100177.13
2024-02-08T02:01:57.352Z,100169.72
2024-02-08T02:04:24.145Z,100171.44
2024-02-08T02:06:50.706Z,100181.50
2024-02-08T02:09:27.204Z,100184.13
2024-02-08T02:11:56.497Z,100168.19
2024-02-08T02:14:30.098Z,100166.69
2024-02-08T02:17:08.754Z,100159.91
2024-02-08T02:19:35.514Z,100159.91
2024-02-08T02:22:02.134Z,100160.78
2024-02-08T02:24:28.761Z,100154.38
2024-02-08T02:26:58.600Z,100160.00
2024-02-08T02:29:28.047Z,100157.28
2024-02-08T02:31:54.373Z,100154.44
2024-02-08T02:34:27.289Z,100156.03
2024-02-08T02:36:59.621Z,100162.69
2024-02-08T02:39:29.549Z,100165.47
2024-02-08T02:41:56.283Z,100162.28
2024-02-08T02:44:22.640Z,100159.91
2024-02-08T02:46:50.966Z,100148.97
2024-02-08T02:49:22.152Z,100155.75
2024-02-08T02:51:49.933Z,100158.16
2024-02-08T02:54:17.189Z,100151.47
2024-02-08T02:56:48.879Z,100148.97
2024-02-08T02:59:18.896Z,100145.63
2024-02-08T03:01:50.742Z,100148.97
2024-02-08T03:04:17.672Z,100140.81
2024-02-08T03:06:46.366Z,100154.47
2024-02-08T03:09:24.612Z,100150.69
2024-02-08T03:11:51.485Z,100152.53
2024-02-08T03:14:20.700Z,100150.56
2024-02-08T03:16:47.392Z,100154.94
2024-02-08T03:19:14.151Z,100149.06
2024-02-08T03:21:41.641Z,100139.25
2024-02-08T03:24:09.300Z,100143.25
2024-02-08T03:26:46.454Z,100143.25
2024-02-08T03:29:13.162Z,100130.72
2024-02-08T03:31:46.818Z,100126.69
2024-02-08T03:34:31.044Z,100134.97
2024-02-08T03:36:58.356Z,100139.88
2024-02-08T03:39:28.224Z,100138.47
2024-02-08T03:42:08.421Z,100138.47
2024-02-08T03:44:35.292Z,100130.06
2024-02-08T03:47:04.871Z,100138.34
2024-02-08T03:49:37.359Z,100132.13
2024-02-08T03:52:04.455Z,100134.97
2024-02-08T03:54:34.534Z,100130.81
2024-02-08T03:57:00.855Z,100137.47
2024-02-08T03:59:27.470Z,100131.50
2024-02-08T04:02:04.651Z,100130.25
2024-02-08T04:04:51.392Z,100128.72
2024-02-08T04:07:38.232Z,100134.16
2024-02-08T04:10:23.472Z,100136.19
2024-02-08T04:13:08.335Z,100139.13
2024-02-08T04:15:53.855Z,100137.16
2024-02-08T04:18:39.722Z,100135.41
2024-02-08T04:21:24.813Z,100140.44
2024-02-08T04:24:09.728Z,100147.94
2024-02-08T04:26:54.837Z,100143.91
2024-02-08T04:29:39.538Z,100155.06
2024-02-08T04:32:24.966Z,100163.81
2024-02-08T04:35:10.285Z,100159.91
2024-02-08T04:37:56.057Z,100161.00
2024-02-08T04:40:40.909Z,100165.41
2024-02-08T04:43:25.947Z,100160.63
2024-02-08T04:46:10.936Z,100161.25
2024-02-08T04:48:55.757Z,100152.47
2024-02-08T04:51:40.526Z,100162.53
2024-02-08T04:54:10.550Z,100159.91
2024-02-08T04:56:37.125Z,100162.94
2024-02-08T04:59:20.506Z,100159.44
2024-02-08T05:01:51.096Z,100158.84
2024-02-08T05:04:19.660Z,100153.47
2024-02-08T05:06:46.971Z,100153.25
2024-02-08T05:09:16.920Z,100147.00
2024-02-08T05:11:44.652Z,100152.53
2024-02-08T05:14:11.197Z,100150.56
2024-02-08T05:16:38.775Z,100145.53
2024-02-08T05:19:05.623Z,100149.16
2024-02-08T05:21:32.976Z,100139.88
2024-02-08T05:23:59.839Z,100141.66
2024-02-08T05:26:26.990Z,100144.53
2024-02-08T05:28:59.000Z,100140.81
2024-02-08T05:31:28.269Z,100144.59
2024-02-08T05:33:58.711Z,100147.72
2024-02-08T05:36:25.660Z,100153.25
2024-02-08T05:38:58.057Z,100162.19
2024-02-08T05:41:24.861Z,100161.94
2024-02-08T05:43:53.054Z,100169.47
2024-02-08T05:46:26.965Z,100166.31
2024-02-08T05:48:53.870Z,100167.31
2024-02-08T05:51:21.989Z,100163.28
2024-02-08T05:53:49.132Z,100150.09
2024-02-08T05:56:22.775Z,100165.28
2024-02-08T05:58:52.881Z,100155.34
2024-02-08T06:01:24.114Z,100154.22
2024-02-08T06:03:51.012Z,100148.56
2024-02-08T06:06:19.298Z,100149.28
2024-02-08T06:08:47.723Z,100150.97
2024-02-08T06:11:21.404Z,100153.44
2024-02-08T06:14:00.312Z,100160.38
2024-02-08T06:16:50.407Z,100154.31
2024-02-08T06:19:18.821Z,100150.72
2024-02-08T06:21:47.405Z,100149.56
2024-02-08T06:24:23.590Z,100155.91
2024-02-08T06:26:57.349Z,100149.59
2024-02-08T06:29:28.593Z,100152.56
2024-02-08T06:32:03.903Z,100156.16
2024-02-08T06:34:43.893Z,100153.66
2024-02-08T06:37:31.001Z,100156.41
2024-02-08T06:39:58.876Z,100154.00
2024-02-08T06:42:38.852Z,100157.03
2024-02-08T06:45:24.039Z,100166.00
2024-02-08T06:47:58.299Z,100157.25
2024-02-08T06:50:43.651Z,100158.91
2024-02-08T06:53:28.317Z,100151.09
2024-02-08T06:56:13.338Z,100154.16
2024-02-08T06:59:00.856Z,100153.81
2024-02-08T07:01:46.582Z,100156.31
2024-02-08T07:04:31.750Z,100146.16
2024-02-08T07:07:16.907Z,100141.69
2024-02-08T07:10:02.036Z,100150.72
2024-02-08T07:12:47.294Z,100148.84
2024-02-08T07:15:32.182Z,100148.00
2024-02-08T07:18:17.402Z,100149.50
2024-02-08T07:21:02.181Z,100151.50
2024-02-08T07:23:47.176Z,100156.09
2024-02-08T07:26:35.415Z,100145.41
2024-02-08T07:29:20.934Z,100157.41
2024-02-08T07:32:05.842Z,100149.16
2024-02-08T07:34:51.941Z,100148.47
2024-02-08T07:37:26.905Z,100143.06
2024-02-08T07:40:02.404Z,100153.53
2024-02-08T07:42:43.466Z,100148.00
2024-02-08T07:45:13.987Z,100146.47
2024-02-08T07:47:40.942Z,100143.09
2024-02-08T07:50:11.365Z,100149.00
2024-02-08T07:52:48.006Z,100143.97
2024-02-08T07:55:44.000Z,100142.41
2024-02-08T07:58:10.363Z,100143.63
2024-02-08T08:00:39.900Z,100151.63
2024-02-08T08:03:17.491Z,100149.34
2024-02-08T08:05:45.842Z,100149.03
2024-02-08T08:08:25.593Z,100154.50
2024-02-08T08:11:05.143Z,100159.22
2024-02-08T08:13:53.530Z,100149.84
2024-02-08T08:16:32.843Z,100159.56
2024-02-08T08:19:00.648Z,100160.66
2024-02-08T08:21:27.994Z,100150.16
2024-02-08T08:24:03.956Z,100153.88
2024-02-08T08:26:40.390Z,100149.53
2024-02-08T08:29:14.837Z,100143.38
2024-02-08T08:31:53.615Z,100145.78
2024-02-08T08:34:23.903Z,100135.50
2024-02-08T08:37:03.533Z,100141.81
2024-02-08T08:40:09.527Z,100137.41
2024-02-08T08:42:35.998Z,100133.03
2024-02-08T08:45:06.433Z,100133.22
2024-02-08T08:47:32.820Z,100134.22
2024-02-08T08:49:59.626Z,100139.47
2024-02-08T08:52:26.440Z,100130.38
2024-02-08T08:55:14.201Z,100143.84
2024-02-08T08:57:40.780Z,100128.94
2024-02-08T09:00:10.500Z,100126.72
2024-02-08T09:02:41.920Z,100136.03
2024-02-08T09:05:18.586Z,100130.63
2024-02-08T09:07:48.420Z,100129.22
2024-02-08T09:10:17.656Z,100135.53
2024-02-08T09:13:01.529Z,100140.00
2024-02-08T09:15:29.325Z,100135.47
2024-02-08T09:18:10.323Z,100137.09
2024-02-08T09:20:38.767Z,100143.59
2024-02-08T09:23:14.351Z,100137.31
2024-02-08T09:25:47.677Z,100140.47
2024-02-08T09:28:37.477Z,100137.94
2024-02-08T09:31:14.151Z,100135.09
2024-02-08T09:33:49.617Z,100135.41
2024-02-08T09:36:16.267Z,100125.72
2024-02-08T09:38:47.477Z,100124.09
2024-02-08T09:41:21.261Z,100128.44
2024-02-08T09:43:49.048Z,100125.75
2024-02-08T09:46:35.140Z,100113.31
2024-02-08T09:49:23.177Z,100110.16
2024-02-08T09:51:57.047Z,100117.63
2024-02-08T09:54:32.070Z,100112.00
2024-02-08T09:57:24.224Z,100110.44
2024-02-08T10:00:08.836Z,100108.97
2024-02-08T10:02:38.173Z,100113.97
2024-02-08T10:05:23.194Z,100104.63
2024-02-08T10:08:07.433Z,100107.50
2024-02-08T10:10:39.759Z,100116.53
2024-02-08T10:13:07.376Z,100112.19
2024-02-08T10:15:45.719Z,100110.13
2024-02-08T10:18:15.362Z,100113.38
2024-02-08T10:20:47.496Z,100108.09
2024-02-08T10:23:34.990Z,100111.84
2024-02-08T10:26:20.375Z,100106.94
2024-02-08T10:28:48.347Z,100109.22
2024-02-08T10:31:20.089Z,100104.09
2024-02-08T10:33:50.276Z,100108.59
2024-02-08T10:36:19.160Z,100097.91
2024-02-08T10:39:03.978Z,100109.66
2024-02-08T10:41:40.264Z,100106.31
2024-02-08T10:44:07.990Z,100113.56
2024-02-08T10:46:35.124Z,100103.03
2024-02-08T10:49:02.445Z,100102.88
2024-02-08T10:51:29.528Z,100092.47
2024-02-08T10:54:15.586Z,100093.81
2024-02-08T10:56:46.578Z,100071.94
2024-02-08T10:59:25.053Z,100080.91
2024-02-08T11:01:52.378Z,100074.88
2024-02-08T11:04:19.964Z,100086.09
2024-02-08T11:06:56.589Z,100077.22
2024-02-08T11:09:23.312Z,100068.88
2024-02-08T11:12:00.849Z,100064.94
2024-02-08T11:14:29.370Z,100062.63
2024-02-08T11:16:56.452Z,100056.84
2024-02-08T11:19:23.837Z,100051.63
2024-02-08T11:21:53.611Z,100054.06
2024-02-08T11:24:30.077Z,100042.25
2024-02-08T11:26:59.659Z,100045.72
2024-02-08T11:29:28.028Z,100057.31
2024-02-08T11:31:57.162Z,100066.03
2024-02-08T11:34:35.216Z,100062.19
2024-02-08T11:37:17.822Z,100049.28
2024-02-08T11:39:48.334Z,100056.59
2024-02-08T11:42:18.436Z,100060.94
2024-02-08T11:44:45.871Z,100051.31
2024-02-08T11:47:19.692Z,100057.88
2024-02-08T11:50:05.017Z,100051.31
2024-02-08T11:52:32.675Z,100045.59
2024-02-08T11:55:10.877Z,100047.59
2024-02-08T11:57:38.559Z,100044.28
2024-02-08T12:00:16.409Z,100038.25
2024-02-08T12:02:49.023Z,100029.38
2024-02-08T12:05:17.126Z,100034.53
2024-02-08T12:07:47.229Z,100023.69
2024-02-08T12:10:16.186Z,100015.53
2024-02-08T12:12:46.047Z,100016.09
2024-02-08T12:15:16.112Z,100023.91
2024-02-08T12:17:49.663Z,100015.72
2024-02-08T12:20:16.834Z,100024.25
2024-02-08T12:22:43.333Z,100026.81
2024-02-08T12:25:16.762Z,100014.38
2024-02-08T12:27:49.246Z,100016.09
2024-02-08T12:30:22.322Z,100014.28
2024-02-08T12:32:52.112Z,100016.00
2024-02-08T12:35:22.340Z,100009.91
2024-02-08T12:37:49.953Z,100005.56
2024-02-08T12:40:18.015Z,100000.31
2024-02-08T12:42:44.532Z,99997.19
2024-02-08T12:45:13.584Z,99987.53
2024-02-08T12:47:40.504Z,99990.75
2024-02-08T12:50:18.051Z,99982.25
2024-02-08T12:52:56.017Z,99985.41
2024-02-08T12:55:30.717Z,99990.63
2024-02-08T12:58:03.577Z,99981.81
2024-02-08T13:00:38.682Z,99980.25
2024-02-08T13:03:10.246Z,99990.13
2024-02-08T13:05:37.722Z,99986.06
2024-02-08T13:08:04.748Z,99983.31
2024-02-08T13:10:35.257Z,99977.75
2024-02-08T13:13:05.565Z,99974.56
2024-02-08T13:15:33.124Z,99961.56
2024-02-08T13:17:59.745Z,99962.28
2024-02-08T13:20:26.297Z,99959.47
2024-02-08T13:22:53.973Z,99963.69
2024-02-08T13:25:20.465Z,99958.88
2024-02-08T13:27:46.772Z,99959.50
2024-02-08T13:30:17.402Z,99951.41
2024-02-08T13:32:50.981Z,99953.31
2024-02-08T13:35:20.810Z,99953.31
2024-02-08T13:37:51.647Z,99947.22
2024-02-08T13:40:23.178Z,99941.78
2024-02-08T13:42:55.239Z,99946.19
2024-02-08T13:45:26.477Z,99940.03
2024-02-08T13:47:57.558Z,99935.59
2024-02-08T13:50:31.654Z,99938.56
2024-02-08T13:52:59.879Z,99940.75
2024-02-08T13:58:01.987Z,99931.50
2024-02-08T14:00:28.634Z,99930.47
2024-02-08T14:02:55.745Z,99927.94
2024-02-08T14:05:27.113Z,99933.00
2024-02-08T14:07:55.911Z,99932.22
2024-02-08T14:10:29.550Z,99935.53
2024-02-08T14:13:19.017Z,99935.38
2024-02-08T14:15:47.506Z,99930.75
2024-02-08T14:18:27.416Z,99931.31
2024-02-08T14:21:01.696Z,99930.97
2024-02-08T14:23:32.125Z,99928.97
2024-02-08T14:26:08.349Z,99923.59
2024-02-08T14:28:47.041Z,99922.00
2024-02-08T14:31:13.982Z,99917.31
2024-02-08T14:33:46.935Z,99915.31
2024-02-08T14:36:14.821Z,99926.38
2024-02-08T14:38:42.205Z,99919.53
2024-02-08T14:41:09.469Z,99919.25
2024-02-08T14:43:36.254Z,99912.13
2024-02-08T14:46:03.265Z,99907.69
2024-02-08T14:48:30.101Z,99912.41
2024-02-08T14:51:17.817Z,99913.09
2024-02-08T14:53:45.871Z,99901.94
2024-02-08T14:56:19.963Z,99906.03
2024-02-08T14:59:10.813Z,99903.16
2024-02-08T15:01:41.329Z,99899.50
2024-02-08T15:04:18.043Z,99890.19
2024-02-08T15:07:05.314Z,99887.56
2024-02-08T15:09:49.412Z,99882.25
2024-02-08T15:12:18.888Z,99870.06
2024-02-08T15:14:46.625Z,99869.13
2024-02-08T15:17:13.039Z,99864.66
2024-02-08T15:19:48.979Z,99863.53
2024-02-08T15:22:31.180Z,99865.81
2024-02-08T15:25:07.461Z,99861.44
2024-02-08T15:27:53.082Z,99862.16
2024-02-08T15:30:37.422Z,99854.50
2024-02-08T15:33:18.519Z,99839.78
2024-02-08T15:35:53.169Z,99845.41
2024-02-08T15:38:34.579Z,99833.22
2024-02-08T15:41:21.623Z,99830.44
2024-02-08T15:43:49.926Z,99826.09
2024-02-08T15:46:16.909Z,99826.78
2024-02-08T15:48:46.442Z,99819.91
2024-02-08T15:51:14.141Z,99822.25
2024-02-08T15:53:49.895Z,99813.75
2024-02-08T15:56:20.790Z,99810.25
2024-02-08T15:58:48.195Z,99805.03
2024-02-08T16:01:15.083Z,99804.66
2024-02-08T16:03:54.715Z,99800.22
2024-02-08T16:06:40.684Z,99802.47
2024-02-08T16:09:09.238Z,99798.72
2024-02-08T16:11:35.659Z,99798.72
2024-02-08T16:14:05.984Z,99790.00
2024-02-08T16:16:32.780Z,99790.81
2024-02-08T16:19:18.487Z,99790.72
2024-02-08T16:21:44.893Z,99787.94
2024-02-08T16:24:14.977Z,99787.94
2024-02-08T16:26:45.551Z,99787.94
2024-02-08T16:29:17.947Z,99792.97
2024-02-08T16:31:46.078Z,99791.22
2024-02-08T16:34:25.900Z,99791.31
2024-02-08T16:37:04.414Z,99792.97
2024-02-08T16:39:55.695Z,99789.50
2024-02-08T16:42:25.056Z,99799.47
2024-02-08T16:44:52.269Z,99800.25
2024-02-08T16:47:42.808Z,99804.31
2024-02-08T16:50:18.918Z,99801.72
2024-02-08T16:52:50.629Z,99804.06
2024-02-08T16:55:23.871Z,99805.59
2024-02-08T16:58:02.030Z,99800.47
2024-02-08T17:00:40.084Z,99804.56
2024-02-08T17:03:09.332Z,99804.47
2024-02-08T17:05:54.619Z,99808.66
2024-02-08T17:08:31.059Z,99811.84
2024-02-08T17:11:02.630Z,99816.91
2024-02-08T17:13:31.398Z,99810.97
2024-02-08T17:16:05.279Z,99811.84
2024-02-08T17:18:45.522Z,99811.84
2024-02-08T17:21:37.014Z,99810.88
2024-02-08T17:24:09.035Z,99805.75
2024-02-08T17:26:36.390Z,99805.66
2024-02-08T17:29:11.494Z,99804.69
2024-02-08T17:31:44.266Z,99803.84
2024-02-08T17:34:11.860Z,99801.22
2024-02-08T17:36:45.449Z,99802.09
2024-02-08T17:39:12.810Z,99805.41
2024-02-08T17:41:39.509Z,99799.38
2024-02-08T17:44:06.220Z,99800.09
2024-02-08T17:46:39.087Z,99796.69
2024-02-08T17:49:06.470Z,99794.91
2024-02-08T17:51:33.287Z,99793.19
2024-02-08T17:54:08.507Z,99790.59
2024-02-08T17:56:35.849Z,99795.63
2024-02-08T17:59:09.774Z,99793.00
2024-02-08T18:01:55.047Z,99793.00
2024-02-08T18:04:26.781Z,99780.31
2024-02-08T18:06:59.970Z,99787.88
2024-02-08T18:09:34.428Z,99782.06
2024-02-08T18:12:13.010Z,99779.63
2024-02-08T18:14:41.507Z,99780.69
2024-02-08T18:17:16.209Z,99777.56
2024-02-08T18:19:46.716Z,99782.63
2024-02-08T18:22:14.778Z,99778.16
2024-02-08T18:24:42.174Z,99778.94
2024-02-08T18:27:08.623Z,99777.00
2024-02-08T18:29:37.060Z,99775.94
2024-02-08T18:32:03.671Z,99779.19
2024-02-08T18:34:33.155Z,99777.31
2024-02-08T18:37:01.797Z,99777.16
2024-02-08T18:39:28.299Z,99779.56
2024-02-08T18:41:59.779Z,99782.00
2024-02-08T18:44:26.245Z,99773.47
2024-02-08T18:46:54.021Z,99781.91
2024-02-08T18:49:22.660Z,99783.56
2024-02-08T18:51:49.353Z,99785.97
2024-02-08T18:54:21.558Z,99775.91
2024-02-08T18:56:48.633Z,99777.09
2024-02-08T18:59:15.208Z,99781.56
2024-02-08T19:01:51.225Z,99768.19
2024-02-08T19:04:25.625Z,99770.34
2024-02-08T19:06:52.364Z,99776.56
2024-02-08T19:09:27.547Z,99777.22
2024-02-08T19:11:54.783Z,99781.97
2024-02-08T19:14:23.203Z,99779.47
2024-02-08T19:16:50.433Z,99778.47
2024-02-08T19:19:18.447Z,99770.94
2024-02-08T19:21:46.781Z,99766.09
2024-02-08T19:24:23.494Z,99762.81
2024-02-08T19:26:50.328Z,99765.69
2024-02-08T19:29:18.573Z,99763.19
2024-02-08T19:31:47.926Z,99761.53
2024-02-08T19:34:22.705Z,99764.84
2024-02-08T19:36:59.482Z,99752.81
2024-02-08T19:39:29.260Z,99753.50
2024-02-08T19:41:56.807Z,99752.75
2024-02-08T19:44:27.148Z,99752.75
2024-02-08T19:47:01.151Z,99751.19
2024-02-08T19:49:35.146Z,99747.78
2024-02-08T19:52:01.970Z,99754.47
2024-02-08T19:54:30.758Z,99751.94
2024-02-08T19:57:04.256Z,99751.84
2024-02-08T19:59:32.690Z,99752.56
2024-02-08T20:01:59.297Z,99753.31
2024-02-08T20:04:25.953Z,99751.22
2024-02-08T20:06:56.382Z,99745.00
2024-02-08T20:09:23.259Z,99745.94
2024-02-08T20:11:53.624Z,99736.75
2024-02-08T20:14:23.614Z,99736.84
2024-02-08T20:16:51.585Z,99730.09
2024-02-08T20:19:19.451Z,99732.72
2024-02-08T20:21:46.268Z,99736.75
2024-02-08T20:24:15.509Z,99739.75
2024-02-08T20:26:49.090Z,99733.78
2024-02-08T20:29:16.224Z,99736.19
2024-02-08T20:31:45.924Z,99735.22
2024-02-08T20:34:13.695Z,99737.84
2024-02-08T20:36:40.327Z,99742.00
2024-02-08T20:39:19.544Z,99732.72
2024-02-08T20:41:50.877Z,99734.91
2024-02-08T20:44:18.783Z,99740.94
2024-02-08T20:46:45.505Z,99729.88
2024-02-08T20:49:14.812Z,99721.41
2024-02-08T20:51:41.885Z,99722.16
2024-02-08T20:54:08.239Z,99714.69
2024-02-08T20:56:44.720Z,99710.53
2024-02-08T20:59:11.872Z,99716.06
2024-02-08T21:01:38.685Z,99707.53
2024-02-08T21:04:08.324Z,99715.88
2024-02-08T21:06:35.794Z,99715.22
2024-02-08T21:09:08.677Z,99720.25
2024-02-08T21:11:35.036Z,99710.19
2024-02-08T21:14:01.633Z,99715.09
2024-02-08T21:16:31.001Z,99711.72
2024-02-08T21:18:58.120Z,99709.94
2024-02-08T21:21:24.535Z,99707.44
2024-02-08T21:23:52.157Z,99709.00
2024-02-08T21:26:23.082Z,99715.59
2024-02-08T21:28:51.982Z,99712.19
2024-02-08T21:31:19.478Z,99713.06
2024-02-08T21:33:51.588Z,99716.34
2024-02-08T21:36:19.170Z,99724.75
2024-02-08T21:38:50.067Z,99719.72
2024-02-08T21:41:17.062Z,99720.63
2024-02-08T21:43:43.989Z,99720.00
2024-02-08T21:46:14.548Z,99713.44
2024-02-08T21:48:45.379Z,99712.56
2024-02-08T21:51:13.325Z,99703.19
2024-02-08T21:53:40.041Z,99705.53
2024-02-08T21:56:17.566Z,99708.03
2024-02-08T21:58:45.240Z,99707.84
2024-02-08T22:03:57.960Z,99700.88
2024-02-08T22:06:25.311Z,99694.97
2024-02-08T22:08:52.035Z,99687.91
2024-02-08T22:11:18.438Z,99690.03
2024-02-08T22:13:47.212Z,99680.75
2024-02-08T22:16:16.597Z,99683.34
2024-02-08T22:18:47.562Z,99679.97
2024-02-08T22:21:18.116Z,99684.09
2024-02-08T22:23:45.051Z,99679.78
2024-02-08T22:26:14.093Z,99680.44
2024-02-08T22:28:43.853Z,99681.13
2024-02-08T22:31:12.624Z,99674.56
2024-02-08T22:33:39.345Z,99670.38
2024-02-08T22:36:07.943Z,99668.47
2024-02-08T22:38:34.775Z,99662.53
2024-02-08T22:41:01.498Z,99658.31
2024-02-08T22:43:28.183Z,99658.13
2024-02-08T22:45:54.585Z,99653.09
2024-02-08T22:48:21.300Z,99658.31
2024-02-08T22:50:48.974Z,99654.91
2024-02-08T22:53:16.060Z,99653.19
2024-02-08T22:55:43.440Z,99649.69
2024-02-08T22:58:13.665Z,99643.78
2024-02-08T23:00:49.556Z,99641.19
2024-02-08T23:03:16.917Z,99631.59
2024-02-08T23:05:51.913Z,99627.44
2024-02-08T23:08:18.296Z,99629.06
2024-02-08T23:10:44.896Z,99630.06
2024-02-08T23:13:12.085Z,99626.56
2024-02-08T23:15:42.742Z,99620.69
2024-02-08T23:18:15.715Z,99620.00
2024-02-08T23:20:44.061Z,99616.72
2024-02-08T23:23:12.220Z,99611.69
2024-02-08T23:25:39.103Z,99620.09
2024-02-08T23:28:05.985Z,99625.13
2024-02-08T23:30:33.901Z,99620.00
2024-02-08T23:33:04.387Z,99613.44
2024-02-08T23:35:31.135Z,99609.94
2024-02-08T23:38:01.065Z,99606.44
2024-02-08T23:40:28.733Z,99604.81
2024-02-08T23:42:59.262Z,99601.41
2024-02-08T23:45:26.191Z,99601.63
2024-02-08T23:47:56.110Z,99595.03
2024-02-08T23:50:23.181Z,99589.25
2024-02-08T23:52:49.952Z,99591.78
2024-02-08T23:55:19.957Z,99584.13
2024-02-08T23:57:47.436Z,99585.78
